Time;durP1;ratioP1;P1;durP2;ratioP2;P2;SDS_P1;SDS_P2;PMS_P1;PMS_P2;Temp;Humidity;BMP_temperature;BMP_pressure;BME280_temperature;BME280_humidity;BME280_pressure;Samples;Min_cycle;Max_cycle;Signal;HPM_P1;HPM_P2
2022/09/28 00:02:06;;;;;;;5.25;5.05;;;;;;;;;;4988756;28;20544;-72
2022/09/28 00:04:34;;;;;;;5.00;4.80;;;;;;;;;;4988706;28;20044;-72
2022/09/28 00:07:00;;;;;;;5.37;5.17;;;;;;;;;;4987880;28;20034;-72
2022/09/28 00:09:26;;;;;;;4.90;4.70;;;;;;;;;;4986580;28;20038;-71
2022/09/28 00:11:56;;;;;;;5.32;5.13;;;;;;;;;;4987514;28;20084;-72
2022/09/28 00:14:22;;;;;;;5.18;4.97;;;;;;;;;;4992521;28;20026;-72
2022/09/28 00:16:48;;;;;;;5.38;5.18;;;;;;;;;;4989577;28;20118;-71
2022/09/28 00:19:14;;;;;;;5.30;5.10;;;;;;;;;;4989787;28;20140;-71
2022/09/28 00:21:40;;;;;;;5.38;5.18;;;;;;;;;;4989017;28;20049;-72
2022/09/28 00:24:11;;;;;;;5.15;4.95;;;;;;;;;;4990912;28;20034;-72
2022/09/28 00:27:00;;;;;;;5.30;5.10;;;;;;;;;;4988724;28;20038;-72
2022/09/28 00:29:33;;;;;;;5.20;5.00;;;;;;;;;;4987116;28;20093;-72
2022/09/28 00:32:08;;;;;;;5.00;4.80;;;;;;;;;;4988821;28;20037;-72
2022/09/28 00:34:37;;;;;;;5.03;4.82;;;;;;;;;;4986988;28;20034;-72
2022/09/28 00:37:04;;;;;;;5.47;5.28;;;;;;;;;;4990105;28;20066;-73
2022/09/28 00:39:30;;;;;;;5.22;5.03;;;;;;;;;;4988867;28;20062;-72
2022/09/28 00:41:57;;;;;;;5.15;4.95;;;;;;;;;;4987967;28;20074;-72
2022/09/28 00:44:34;;;;;;;5.30;5.10;;;;;;;;;;4988807;28;20046;-72
2022/09/28 00:47:21;;;;;;;7.93;7.53;;;;;;;;;;4987737;28;20665;-72
2022/09/28 00:50:26;;;;;;;5.07;4.88;;;;;;;;;;4989150;28;20153;-72
2022/09/28 00:53:03;;;;;;;5.28;5.07;;;;;;;;;;4947365;28;20523;-72
2022/09/28 00:55:37;;;;;;;5.20;5.00;;;;;;;;;;4931378;28;20039;-72
2022/09/28 00:58:05;;;;;;;4.85;4.65;;;;;;;;;;4926794;29;20109;-72
2022/09/28 01:00:31;;;;;;;5.20;5.00;;;;;;;;;;4946602;28;20440;-72
2022/09/28 01:02:58;;;;;;;4.57;4.38;;;;;;;;;;4932675;28;20576;-72
2022/09/28 01:05:25;;;;;;;4.95;4.75;;;;;;;;;;4933732;29;20047;-72
2022/09/28 01:07:54;;;;;;;5.05;4.85;;;;;;;;;;4947412;28;20098;-72
2022/09/28 01:10:20;;;;;;;4.90;4.70;;;;;;;;;;4947781;28;20047;-72
2022/09/28 01:12:46;;;;;;;5.22;5.03;;;;;;;;;;4931830;28;20050;-73
2022/09/28 01:15:13;;;;;;;5.18;4.97;;;;;;;;;;4930903;28;20039;-72
2022/09/28 01:17:48;;;;;;;5.07;4.88;;;;;;;;;;4928798;29;20051;-73
2022/09/28 01:20:46;;;;;;;5.38;5.18;;;;;;;;;;4917883;28;20493;-72
2022/09/28 01:23:39;;;;;;;4.90;4.70;;;;;;;;;;4934968;28;20043;-72
2022/09/28 01:26:27;;;;;;;5.80;5.50;;;;;;;;;;4936837;28;20037;-72
2022/09/28 01:28:59;;;;;;;5.28;5.07;;;;;;;;;;4969938;28;20075;-73
2022/09/28 01:31:31;;;;;;;5.78;5.50;;;;;;;;;;5008853;28;20030;-73
2022/09/28 01:34:07;;;;;;;4.95;4.75;;;;;;;;;;4990919;28;20038;-73
2022/09/28 01:36:47;;;;;;;5.43;5.22;;;;;;;;;;4987059;28;20620;-73
2022/09/28 01:39:22;;;;;;;5.60;5.40;;;;;;;;;;4989202;28;20046;-73
2022/09/28 01:41:50;;;;;;;5.25;5.05;;;;;;;;;;4991534;28;20042;-72
2022/09/28 01:44:18;;;;;;;5.18;4.97;;;;;;;;;;4990793;28;20061;-73
2022/09/28 01:46:49;;;;;;;5.20;5.00;;;;;;;;;;4991495;28;20065;-73
2022/09/28 01:49:20;;;;;;;4.97;4.78;;;;;;;;;;4991590;28;20068;-73
2022/09/28 01:51:54;;;;;;;5.28;5.07;;;;;;;;;;4988703;28;20042;-73
2022/09/28 01:55:00;;;;;;;5.13;4.93;;;;;;;;;;4989663;28;20108;-73
2022/09/28 01:57:33;;;;;;;5.38;5.18;;;;;;;;;;4973168;28;20112;-71
2022/09/28 02:00:04;;;;;;;5.30;5.10;;;;;;;;;;4990261;28;20041;-72
2022/09/28 02:02:47;;;;;;;5.93;5.63;;;;;;;;;;4987463;28;20409;-71
2022/09/28 02:05:40;;;;;;;5.30;5.10;;;;;;;;;;4992146;28;20036;-71
2022/09/28 02:08:15;;;;;;;4.93;4.72;;;;;;;;;;4985153;28;20046;-71
2022/09/28 02:10:54;;;;;;;5.30;5.10;;;;;;;;;;4992093;28;20498;-72
2022/09/28 02:13:28;;;;;;;5.25;5.05;;;;;;;;;;4992461;28;20533;-73
2022/09/28 02:16:05;;;;;;;5.28;5.07;;;;;;;;;;4989566;28;20073;-71
2022/09/28 02:18:31;;;;;;;5.40;5.20;;;;;;;;;;4988766;28;20058;-71
2022/09/28 02:21:09;;;;;;;5.35;5.15;;;;;;;;;;4994163;28;20058;-73
2022/09/28 02:23:38;;;;;;;5.13;4.93;;;;;;;;;;5002849;28;20489;-73
2022/09/28 02:26:10;;;;;;;5.20;5.00;;;;;;;;;;4988466;28;20415;-73
2022/09/28 02:28:36;;;;;;;5.00;4.80;;;;;;;;;;4989308;28;20554;-73
2022/09/28 02:31:02;;;;;;;5.57;5.38;;;;;;;;;;4989404;28;20118;-73
2022/09/28 02:33:37;;;;;;;5.90;5.60;;;;;;;;;;4989528;28;20109;-73
2022/09/28 02:36:03;;;;;;;5.55;5.35;;;;;;;;;;4989617;28;20073;-72
2022/09/28 02:38:35;;;;;;;5.28;5.07;;;;;;;;;;4988209;28;20509;-72
2022/09/28 02:41:00;;;;;;;5.28;5.07;;;;;;;;;;4989347;28;20038;-73
2022/09/28 02:43:39;;;;;;;4.90;4.70;;;;;;;;;;4990212;28;20494;-72
2022/09/28 02:46:38;;;;;;;5.55;5.35;;;;;;;;;;4991119;28;20034;-72
2022/09/28 02:49:31;;;;;;;5.20;5.00;;;;;;;;;;4980432;28;20049;-72
2022/09/28 02:52:04;;;;;;;4.95;4.75;;;;;;;;;;4992122;28;20560;-72
2022/09/28 02:54:44;;;;;;;5.25;5.05;;;;;;;;;;5003748;28;20069;-72
2022/09/28 02:57:23;;;;;;;5.40;5.20;;;;;;;;;;4988109;28;20367;-72
2022/09/28 02:59:52;;;;;;;5.25;5.05;;;;;;;;;;4987742;28;20038;-71
2022/09/28 03:02:29;;;;;;;5.63;5.43;;;;;;;;;;4987429;28;20030;-71
2022/09/28 03:05:17;;;;;;;5.10;4.90;;;;;;;;;;4987281;28;20042;-72
2022/09/28 03:08:02;;;;;;;5.20;5.00;;;;;;;;;;4988623;28;20038;-72
2022/09/28 03:10:52;;;;;;;5.18;4.97;;;;;;;;;;4987474;28;20486;-71
2022/09/28 03:13:18;;;;;;;5.28;5.07;;;;;;;;;;4988523;28;20045;-72
2022/09/28 03:15:44;;;;;;;5.88;5.57;;;;;;;;;;4988161;28;20132;-71
2022/09/28 03:18:10;;;;;;;5.40;5.20;;;;;;;;;;4990241;28;20057;-71
2022/09/28 03:20:36;;;;;;;5.28;5.07;;;;;;;;;;4988287;28;20030;-72
2022/09/28 03:23:02;;;;;;;5.50;5.30;;;;;;;;;;4987528;28;20129;-72
2022/09/28 03:25:28;;;;;;;5.30;5.10;;;;;;;;;;4989065;28;20506;-72
2022/09/28 03:27:54;;;;;;;5.20;5.00;;;;;;;;;;4990357;28;20069;-72
2022/09/28 03:30:21;;;;;;;5.22;5.03;;;;;;;;;;4991052;28;20033;-72
2022/09/28 03:32:59;;;;;;;5.20;5.00;;;;;;;;;;4989577;28;20089;-72
2022/09/28 03:35:26;;;;;;;5.30;5.10;;;;;;;;;;4987754;28;20034;-72
2022/09/28 03:37:55;;;;;;;5.18;4.97;;;;;;;;;;4989161;28;20034;-72
2022/09/28 03:40:22;;;;;;;5.55;5.35;;;;;;;;;;4986671;28;20030;-72
2022/09/28 03:42:47;;;;;;;5.28;5.07;;;;;;;;;;4988335;28;20030;-72
2022/09/28 03:45:13;;;;;;;5.18;4.97;;;;;;;;;;4987550;28;20030;-72
2022/09/28 03:47:38;;;;;;;5.32;5.13;;;;;;;;;;4988948;28;20892;-72
2022/09/28 03:50:05;;;;;;;5.30;5.10;;;;;;;;;;4987237;28;20081;-72
2022/09/28 03:52:31;;;;;;;5.25;5.05;;;;;;;;;;4987536;28;20034;-72
2022/09/28 03:54:57;;;;;;;5.35;5.15;;;;;;;;;;4987206;28;20042;-72
2022/09/28 03:57:22;;;;;;;5.60;5.40;;;;;;;;;;4988954;28;20571;-71
2022/09/28 03:59:48;;;;;;;5.15;4.95;;;;;;;;;;4987814;28;20057;-72
2022/09/28 04:02:13;;;;;;;5.18;4.97;;;;;;;;;;4987112;28;20118;-72
2022/09/28 04:04:41;;;;;;;4.95;4.75;;;;;;;;;;4987302;28;20057;-72
2022/09/28 04:07:06;;;;;;;5.28;5.07;;;;;;;;;;4985393;28;20053;-72
2022/09/28 04:09:32;;;;;;;5.20;5.00;;;;;;;;;;4987791;28;20494;-72
2022/09/28 04:11:57;;;;;;;5.32;5.13;;;;;;;;;;4988197;28;20113;-71
2022/09/28 04:14:24;;;;;;;5.80;5.50;;;;;;;;;;4989357;28;20045;-71
2022/09/28 04:16:53;;;;;;;5.80;5.50;;;;;;;;;;4985053;28;20505;-72
2022/09/28 04:19:18;;;;;;;5.70;5.47;;;;;;;;;;4987475;28;20042;-70
2022/09/28 04:21:55;;;;;;;5.50;5.30;;;;;;;;;;4989624;28;20130;-71
2022/09/28 04:24:21;;;;;;;5.30;5.10;;;;;;;;;;4986676;28;20107;-71
2022/09/28 04:26:47;;;;;;;5.80;5.50;;;;;;;;;;4986130;28;20042;-71
2022/09/28 04:29:15;;;;;;;5.72;5.50;;;;;;;;;;4988785;28;20128;-71
2022/09/28 04:31:54;;;;;;;5.38;5.18;;;;;;;;;;4986524;28;20752;-71
2022/09/28 04:34:26;;;;;;;5.88;5.57;;;;;;;;;;4986692;28;20065;-70
2022/09/28 04:36:51;;;;;;;5.97;5.68;;;;;;;;;;4986485;28;20382;-70
2022/09/28 04:39:18;;;;;;;6.28;5.97;;;;;;;;;;4986046;28;20061;-71
2022/09/28 04:41:50;;;;;;;6.22;5.93;;;;;;;;;;4988906;28;20393;-70
2022/09/28 04:44:15;;;;;;;5.97;5.68;;;;;;;;;;4987540;28;20044;-71
2022/09/28 04:46:41;;;;;;;5.80;5.50;;;;;;;;;;4984259;28;20043;-68
2022/09/28 04:49:25;;;;;;;6.00;5.70;;;;;;;;;;4988213;28;20058;-68
2022/09/28 04:52:11;;;;;;;5.82;5.53;;;;;;;;;;4986984;28;20049;-72
2022/09/28 04:54:36;;;;;;;6.10;5.80;;;;;;;;;;4983383;28;20038;-72
2022/09/28 04:57:03;;;;;;;6.10;5.80;;;;;;;;;;4985768;28;20030;-72
2022/09/28 04:59:29;;;;;;;6.18;5.88;;;;;;;;;;4987257;28;20039;-72
2022/09/28 05:01:55;;;;;;;5.90;5.60;;;;;;;;;;4987453;28;20042;-72
2022/09/28 05:04:39;;;;;;;5.82;5.53;;;;;;;;;;4983298;28;20110;-71
2022/09/28 05:07:37;;;;;;;6.15;5.85;;;;;;;;;;4984374;28;20042;-71
2022/09/28 05:10:05;;;;;;;6.00;5.70;;;;;;;;;;4989641;28;20395;-71
2022/09/28 05:12:31;;;;;;;6.57;6.28;;;;;;;;;;4989015;28;20034;-72
2022/09/28 05:14:59;;;;;;;6.25;5.95;;;;;;;;;;4991314;28;20818;-72
2022/09/28 05:17:25;;;;;;;6.45;6.15;;;;;;;;;;4987793;28;20523;-72
2022/09/28 05:20:08;;;;;;;6.30;6.00;;;;;;;;;;4988797;28;20034;-72
2022/09/28 05:22:34;;;;;;;6.25;5.95;;;;;;;;;;4987426;28;20038;-72
2022/09/28 05:25:01;;;;;;;6.22;5.93;;;;;;;;;;4988956;28;20505;-72
2022/09/28 05:27:31;;;;;;;6.15;5.85;;;;;;;;;;4992105;28;20030;-72
2022/09/28 05:30:06;;;;;;;6.47;6.18;;;;;;;;;;4989468;28;20034;-72
2022/09/28 05:32:32;;;;;;;6.45;6.15;;;;;;;;;;4991247;28;20041;-72
2022/09/28 05:35:18;;;;;;;6.38;6.07;;;;;;;;;;4985686;28;20073;-72
2022/09/28 05:37:46;;;;;;;6.13;5.82;;;;;;;;;;4985882;28;20039;-72
2022/09/28 05:40:12;;;;;;;6.40;6.10;;;;;;;;;;4991835;28;20141;-72
2022/09/28 05:42:38;;;;;;;6.00;5.70;;;;;;;;;;4989343;28;20132;-72
2022/09/28 05:45:05;;;;;;;6.10;5.80;;;;;;;;;;4989737;28;20166;-72
2022/09/28 05:47:36;;;;;;;6.65;6.35;;;;;;;;;;4989906;28;20038;-72
2022/09/28 05:50:05;;;;;;;6.32;6.03;;;;;;;;;;4973240;28;20038;-72
2022/09/28 05:52:31;;;;;;;6.63;6.32;;;;;;;;;;4989385;28;20038;-72
2022/09/28 05:54:56;;;;;;;6.32;6.03;;;;;;;;;;4982325;28;20034;-72
2022/09/28 05:57:22;;;;;;;6.70;6.40;;;;;;;;;;4996130;28;20035;-73
2022/09/28 05:59:52;;;;;;;6.60;6.30;;;;;;;;;;4987043;28;20037;-72
2022/09/28 06:02:19;;;;;;;6.55;6.25;;;;;;;;;;4976709;28;20042;-73
2022/09/28 06:04:48;;;;;;;6.57;6.28;;;;;;;;;;4957397;28;20116;-73
2022/09/28 06:07:14;;;;;;;6.35;6.05;;;;;;;;;;4973606;28;20045;-73
2022/09/28 06:09:39;;;;;;;6.25;5.95;;;;;;;;;;4993931;28;20042;-73
2022/09/28 06:12:18;;;;;;;6.75;6.45;;;;;;;;;;4989922;28;20405;-72
2022/09/28 06:14:50;;;;;;;6.35;6.05;;;;;;;;;;4993199;28;20064;-73
2022/09/28 06:17:15;;;;;;;6.25;5.95;;;;;;;;;;4988291;28;20109;-73
2022/09/28 06:19:46;;;;;;;6.60;6.30;;;;;;;;;;4990698;28;20046;-73
2022/09/28 06:22:44;;;;;;;6.57;6.28;;;;;;;;;;4976008;28;20038;-72
2022/09/28 06:25:10;;;;;;;6.47;6.18;;;;;;;;;;4986661;28;20034;-72
2022/09/28 06:27:39;;;;;;;6.93;6.63;;;;;;;;;;4994288;28;20116;-72
2022/09/28 06:30:06;;;;;;;6.68;6.38;;;;;;;;;;4989715;28;20116;-72
2022/09/28 06:32:31;;;;;;;6.70;6.40;;;;;;;;;;4973378;28;20081;-73
2022/09/28 06:34:58;;;;;;;7.00;6.70;;;;;;;;;;4990688;28;20034;-72
2022/09/28 06:37:27;;;;;;;6.90;6.60;;;;;;;;;;4958775;28;20031;-72
2022/09/28 06:39:55;;;;;;;7.22;6.93;;;;;;;;;;4973543;28;20038;-73
2022/09/28 06:42:22;;;;;;;7.05;6.75;;;;;;;;;;4956068;28;20064;-72
2022/09/28 06:45:09;;;;;;;6.72;6.43;;;;;;;;;;4974823;28;20038;-72
2022/09/28 06:47:58;;;;;;;7.03;6.72;;;;;;;;;;4988022;28;21849;-73
2022/09/28 06:50:41;;;;;;;7.13;6.82;;;;;;;;;;4954824;28;20038;-72
2022/09/28 06:53:28;;;;;;;6.72;6.43;;;;;;;;;;4987717;28;20034;-72
2022/09/28 06:56:14;;;;;;;6.80;6.50;;;;;;;;;;4974089;28;20117;-72
2022/09/28 06:58:39;;;;;;;6.75;6.45;;;;;;;;;;4971581;28;20049;-72
2022/09/28 07:01:06;;;;;;;6.57;6.28;;;;;;;;;;4993600;28;20046;-72
2022/09/28 07:03:44;;;;;;;6.53;6.22;;;;;;;;;;4972924;28;20045;-72
2022/09/28 07:06:30;;;;;;;6.78;6.47;;;;;;;;;;4987288;28;20085;-72
2022/09/28 07:09:28;;;;;;;6.55;6.25;;;;;;;;;;4975049;28;20045;-73
2022/09/28 07:12:12;;;;;;;6.63;6.32;;;;;;;;;;4989951;28;20038;-73
2022/09/28 07:14:59;;;;;;;6.88;6.57;;;;;;;;;;4989708;28;20681;-73
2022/09/28 07:17:27;;;;;;;6.68;6.38;;;;;;;;;;4989305;28;20040;-72
2022/09/28 07:19:57;;;;;;;7.60;7.20;;;;;;;;;;4989824;28;20182;-73
2022/09/28 07:22:23;;;;;;;7.05;6.75;;;;;;;;;;4988154;28;20180;-72
2022/09/28 07:24:50;;;;;;;6.90;6.60;;;;;;;;;;4986560;28;20117;-72
2022/09/28 07:27:41;;;;;;;6.65;6.35;;;;;;;;;;4989338;28;20667;-72
2022/09/28 07:30:36;;;;;;;6.30;6.00;;;;;;;;;;4980198;28;20058;-73
2022/09/28 07:33:13;;;;;;;6.40;6.10;;;;;;;;;;4984417;28;20073;-71
2022/09/28 07:35:54;;;;;;;6.35;6.05;;;;;;;;;;4991587;28;20026;-72
2022/09/28 07:38:21;;;;;;;6.45;6.15;;;;;;;;;;4988707;28;20041;-72
2022/09/28 07:43:32;;;;;;;6.75;6.45;;;;;;;;;;4992653;28;20034;-71
2022/09/28 07:45:58;;;;;;;6.45;6.15;;;;;;;;;;4992259;28;20029;-71
2022/09/28 07:48:24;;;;;;;6.10;5.80;;;;;;;;;;5003764;28;20851;-71
2022/09/28 07:51:18;;;;;;;6.70;6.40;;;;;;;;;;4986112;28;20085;-71
2022/09/28 07:53:53;;;;;;;6.60;6.30;;;;;;;;;;4988608;28;20409;-70
2022/09/28 07:56:41;;;;;;;6.70;6.40;;;;;;;;;;4989349;28;20065;-71
2022/09/28 07:59:35;;;;;;;6.53;6.22;;;;;;;;;;4966616;28;20039;-70
2022/09/28 08:02:04;;;;;;;6.75;6.45;;;;;;;;;;4989501;28;20409;-72
2022/09/28 08:04:30;;;;;;;6.60;6.30;;;;;;;;;;4990029;28;20038;-73
2022/09/28 08:06:56;;;;;;;6.72;6.43;;;;;;;;;;4973835;28;20040;-71
2022/09/28 08:09:22;;;;;;;6.72;6.43;;;;;;;;;;4990785;28;20039;-71
2022/09/28 08:12:20;;;;;;;7.20;6.88;;;;;;;;;;4974851;28;20054;-71
2022/09/28 08:15:00;;;;;;;6.90;6.60;;;;;;;;;;4988553;28;20042;-71
2022/09/28 08:17:52;;;;;;;6.55;6.25;;;;;;;;;;4983731;28;20047;-72
2022/09/28 08:23:05;;;;;;;6.95;6.65;;;;;;;;;;4991633;28;20029;-72
2022/09/28 08:25:32;;;;;;;6.70;6.40;;;;;;;;;;4989022;28;20433;-72
2022/09/28 08:28:01;;;;;;;7.03;6.72;;;;;;;;;;4990379;28;20034;-71
2022/09/28 08:30:30;;;;;;;7.07;6.78;;;;;;;;;;4991982;28;20066;-72
2022/09/28 08:33:14;;;;;;;6.78;6.47;;;;;;;;;;4986769;28;20042;-72
2022/09/28 08:36:00;;;;;;;7.50;7.10;;;;;;;;;;4993606;28;20034;-72
2022/09/28 08:38:46;;;;;;;6.50;6.20;;;;;;;;;;4991324;28;20042;-71
2022/09/28 08:42:02;;;;;;;7.35;6.95;;;;;;;;;;4991249;28;20034;-72
2022/09/28 08:44:56;;;;;;;6.70;6.40;;;;;;;;;;4985272;28;20111;-72
2022/09/28 08:50:59;;;;;;;6.57;6.28;;;;;;;;;;4991280;28;20038;-72
2022/09/28 08:54:04;;;;;;;6.68;6.38;;;;;;;;;;4993351;28;20033;-72
2022/09/28 08:57:08;;;;;;;7.13;6.82;;;;;;;;;;4976612;28;20030;-71
2022/09/28 08:59:50;;;;;;;6.90;6.60;;;;;;;;;;4949931;28;20627;-71
2022/09/28 09:02:26;;;;;;;6.82;6.53;;;;;;;;;;4950124;28;20229;-71
2022/09/28 09:04:58;;;;;;;6.78;6.47;;;;;;;;;;4934250;29;20126;-71
2022/09/28 09:07:29;;;;;;;7.20;6.90;;;;;;;;;;4934250;28;20114;-71
2022/09/28 09:10:13;;;;;;;6.88;6.57;;;;;;;;;;4937551;28;20102;-70
2022/09/28 09:13:16;;;;;;;6.15;5.85;;;;;;;;;;4952663;28;20047;-70
2022/09/28 09:16:08;;;;;;;5.80;5.50;;;;;;;;;;4935240;28;20035;-71
2022/09/28 09:19:05;;;;;;;6.65;6.35;;;;;;;;;;4921403;28;20438;-71
2022/09/28 09:21:42;;;;;;;6.93;6.63;;;;;;;;;;4935328;29;20921;-71
2022/09/28 09:24:17;;;;;;;6.90;6.60;;;;;;;;;;4936481;28;20098;-71
2022/09/28 09:26:44;;;;;;;6.70;6.40;;;;;;;;;;4938692;28;20129;-71
2022/09/28 09:29:49;;;;;;;7.32;6.93;;;;;;;;;;4950329;28;20054;-71
2022/09/28 09:32:53;;;;;;;7.05;6.75;;;;;;;;;;4940941;28;20046;-71
2022/09/28 09:36:12;;;;;;;6.70;6.40;;;;;;;;;;4937847;28;20054;-70
2022/09/28 09:42:31;;;;;;;7.00;6.70;;;;;;;;;;4987273;28;20058;-70
2022/09/28 09:45:48;;;;;;;7.13;6.82;;;;;;;;;;4992808;28;20031;-70
2022/09/28 09:49:06;;;;;;;7.55;7.15;;;;;;;;;;4990404;28;20046;-71
2022/09/28 09:52:17;;;;;;;7.30;6.95;;;;;;;;;;4934551;28;20073;-71
2022/09/28 09:54:50;;;;;;;6.88;6.57;;;;;;;;;;4908303;29;20441;-71
2022/09/28 09:57:39;;;;;;;7.18;6.85;;;;;;;;;;4888378;29;20124;-71
2022/09/28 10:00:39;;;;;;;6.93;6.63;;;;;;;;;;4906531;29;20056;-72
2022/09/28 10:03:26;;;;;;;6.93;6.63;;;;;;;;;;4892789;29;20054;-72
2022/09/28 10:06:04;;;;;;;6.90;6.60;;;;;;;;;;4892875;29;20060;-71
2022/09/28 10:08:44;;;;;;;6.70;6.40;;;;;;;;;;4891152;29;20063;-71
2022/09/28 10:11:21;;;;;;;7.03;6.72;;;;;;;;;;4907521;29;20032;-71
2022/09/28 10:13:52;;;;;;;6.95;6.65;;;;;;;;;;4907501;29;20037;-71
2022/09/28 10:16:36;;;;;;;7.22;6.90;;;;;;;;;;4888437;29;20059;-71
2022/09/28 10:19:10;;;;;;;7.00;6.70;;;;;;;;;;4906760;29;20052;-72
2022/09/28 10:21:57;;;;;;;7.30;6.90;;;;;;;;;;4890911;29;20041;-71
2022/09/28 10:24:33;;;;;;;6.68;6.38;;;;;;;;;;4912435;29;20033;-71
2022/09/28 10:27:14;;;;;;;7.22;6.88;;;;;;;;;;4934557;28;20043;-69
2022/09/28 10:30:07;;;;;;;7.53;7.13;;;;;;;;;;4990818;28;20143;-72
2022/09/28 10:32:44;;;;;;;6.80;6.50;;;;;;;;;;4982776;28;20038;-71
2022/09/28 10:35:29;;;;;;;7.00;6.70;;;;;;;;;;4992116;28;20121;-71
2022/09/28 10:38:17;;;;;;;6.93;6.63;;;;;;;;;;4990895;28;20061;-71
2022/09/28 10:40:55;;;;;;;7.13;6.82;;;;;;;;;;4992023;28;20371;-71
2022/09/28 10:43:35;;;;;;;6.88;6.57;;;;;;;;;;4991490;28;20034;-71
2022/09/28 10:46:10;;;;;;;6.97;6.68;;;;;;;;;;4992163;28;20046;-72
2022/09/28 10:48:51;;;;;;;6.70;6.40;;;;;;;;;;4996415;28;20069;-72
2022/09/28 10:51:19;;;;;;;7.28;6.93;;;;;;;;;;5010019;28;20037;-71
2022/09/28 10:54:01;;;;;;;6.80;6.50;;;;;;;;;;5009567;28;20030;-71
2022/09/28 10:56:45;;;;;;;6.57;6.28;;;;;;;;;;5015217;28;20069;-72
2022/09/28 10:59:29;;;;;;;6.90;6.60;;;;;;;;;;5009874;28;20040;-71
2022/09/28 11:02:20;;;;;;;7.00;6.70;;;;;;;;;;5024497;28;20099;-71
2022/09/28 11:04:58;;;;;;;6.85;6.55;;;;;;;;;;5008892;28;20046;-72
2022/09/28 11:07:43;;;;;;;7.20;6.88;;;;;;;;;;5030203;28;20061;-71
2022/09/28 11:10:19;;;;;;;7.07;6.78;;;;;;;;;;5012087;28;20108;-72
2022/09/28 11:12:46;;;;;;;7.40;7.00;;;;;;;;;;5009325;28;20084;-72
2022/09/28 11:15:18;;;;;;;6.93;6.63;;;;;;;;;;5012852;28;20401;-72
2022/09/28 11:17:45;;;;;;;7.63;7.22;;;;;;;;;;5007437;28;20038;-72
2022/09/28 11:20:24;;;;;;;7.85;7.45;;;;;;;;;;5013803;28;20664;-71
2022/09/28 11:23:13;;;;;;;6.97;6.68;;;;;;;;;;5009707;28;20038;-72
2022/09/28 11:25:39;;;;;;;6.85;6.55;;;;;;;;;;5009461;28;20458;-72
2022/09/28 11:28:21;;;;;;;6.70;6.40;;;;;;;;;;5015561;28;20088;-71
2022/09/28 11:30:50;;;;;;;6.65;6.35;;;;;;;;;;5010329;28;20124;-72
2022/09/28 11:33:34;;;;;;;6.60;6.30;;;;;;;;;;5011849;28;20041;-71
2022/09/28 11:36:47;;;;;;;7.22;6.90;;;;;;;;;;5020070;28;20586;-71
2022/09/28 11:39:44;;;;;;;6.90;6.60;;;;;;;;;;5012342;28;20026;-72
2022/09/28 11:42:49;;;;;;;7.10;6.80;;;;;;;;;;5010282;28;20045;-72
2022/09/28 11:45:50;;;;;;;6.97;6.68;;;;;;;;;;5024054;28;20029;-71
2022/09/28 11:48:32;;;;;;;7.18;6.88;;;;;;;;;;4948272;28;20058;-71
2022/09/28 11:51:30;;;;;;;7.43;7.03;;;;;;;;;;4949283;28;20106;-72
2022/09/28 11:54:00;;;;;;;6.93;6.63;;;;;;;;;;4945060;28;20046;-71
2022/09/28 11:56:37;;;;;;;7.03;6.72;;;;;;;;;;4934245;29;20039;-71
2022/09/28 11:59:13;;;;;;;7.03;6.72;;;;;;;;;;4945066;28;20043;-71
2022/09/28 12:01:48;;;;;;;7.38;6.97;;;;;;;;;;4933928;28;20387;-71
2022/09/28 12:04:45;;;;;;;6.75;6.45;;;;;;;;;;4951326;28;20133;-71
2022/09/28 12:07:14;;;;;;;6.65;6.35;;;;;;;;;;4939187;28;20502;-72
2022/09/28 12:09:57;;;;;;;7.15;6.85;;;;;;;;;;4947944;28;20067;-72
2022/09/28 12:12:34;;;;;;;6.95;6.65;;;;;;;;;;4950389;28;20058;-72
2022/09/28 12:15:17;;;;;;;7.63;7.22;;;;;;;;;;4930184;29;20043;-72
2022/09/28 12:17:49;;;;;;;6.72;6.43;;;;;;;;;;4948475;28;20057;-71
2022/09/28 12:20:23;;;;;;;6.63;6.32;;;;;;;;;;4948612;28;20042;-71
2022/09/28 12:23:04;;;;;;;6.97;6.68;;;;;;;;;;4947941;28;20035;-70
2022/09/28 12:25:38;;;;;;;6.90;6.60;;;;;;;;;;4999327;28;20053;-71
2022/09/28 12:28:17;;;;;;;6.72;6.43;;;;;;;;;;5006967;28;20037;-71
2022/09/28 12:30:46;;;;;;;7.00;6.70;;;;;;;;;;5009956;28;20034;-71
2022/09/28 12:33:16;;;;;;;6.40;6.10;;;;;;;;;;5009544;28;20044;-70
2022/09/28 12:36:00;;;;;;;6.70;6.40;;;;;;;;;;5007612;28;20042;-70
2022/09/28 12:38:29;;;;;;;6.38;6.07;;;;;;;;;;5009962;28;20442;-70
2022/09/28 12:41:27;;;;;;;6.47;6.18;;;;;;;;;;5007955;28;20425;-71
2022/09/28 12:44:06;;;;;;;6.50;6.20;;;;;;;;;;5024630;28;20038;-71
2022/09/28 12:46:41;;;;;;;7.18;6.88;;;;;;;;;;5004018;28;20043;-72
2022/09/28 12:49:34;;;;;;;7.28;6.90;;;;;;;;;;5008484;28;20034;-72
2022/09/28 12:52:21;;;;;;;7.53;7.13;;;;;;;;;;5007181;28;20067;-71
2022/09/28 12:55:10;;;;;;;6.72;6.43;;;;;;;;;;5006566;28;20065;-71
2022/09/28 12:57:42;;;;;;;6.93;6.63;;;;;;;;;;5002477;28;20032;-71
2022/09/28 13:00:20;;;;;;;7.55;7.15;;;;;;;;;;5008637;28;20041;-71
2022/09/28 13:02:58;;;;;;;7.15;6.85;;;;;;;;;;5006672;28;20755;-72
2022/09/28 13:06:03;;;;;;;7.28;6.90;;;;;;;;;;5010912;28;20169;-71
2022/09/28 13:08:54;;;;;;;7.55;7.15;;;;;;;;;;5006883;28;20018;-72
2022/09/28 13:11:50;;;;;;;7.00;6.70;;;;;;;;;;5004453;28;20137;-72
2022/09/28 13:14:54;;;;;;;7.32;6.95;;;;;;;;;;5001399;28;20505;-72
2022/09/28 13:17:52;;;;;;;6.90;6.60;;;;;;;;;;5010607;28;20057;-72
2022/09/28 13:20:34;;;;;;;7.40;7.00;;;;;;;;;;5005006;28;20062;-71
2022/09/28 13:23:22;;;;;;;7.07;6.78;;;;;;;;;;5008292;28;20551;-71
2022/09/28 13:25:59;;;;;;;7.00;6.70;;;;;;;;;;4991107;28;20041;-71
2022/09/28 13:28:30;;;;;;;6.53;6.22;;;;;;;;;;4994974;28;20040;-71
2022/09/28 13:30:58;;;;;;;6.88;6.57;;;;;;;;;;5010052;28;20026;-72
2022/09/28 13:33:44;;;;;;;7.28;6.90;;;;;;;;;;4994741;28;20033;-70
2022/09/28 13:36:25;;;;;;;6.97;6.68;;;;;;;;;;5008870;28;20608;-71
2022/09/28 13:38:52;;;;;;;7.32;6.93;;;;;;;;;;5015037;28;20049;-71
2022/09/28 13:41:33;;;;;;;7.40;7.00;;;;;;;;;;5009702;28;20033;-71
2022/09/28 13:44:21;;;;;;;7.45;7.05;;;;;;;;;;5014476;28;20072;-72
2022/09/28 13:47:09;;;;;;;6.90;6.60;;;;;;;;;;5011813;28;20120;-71
2022/09/28 13:50:11;;;;;;;7.10;6.80;;;;;;;;;;5004171;28;20056;-69
2022/09/28 13:52:54;;;;;;;7.03;6.72;;;;;;;;;;4999268;28;20040;-71
2022/09/28 13:55:31;;;;;;;7.63;7.22;;;;;;;;;;5008827;28;20030;-71
2022/09/28 13:58:16;;;;;;;7.38;6.97;;;;;;;;;;5008164;28;20038;-71
2022/09/28 14:00:48;;;;;;;6.97;6.68;;;;;;;;;;5007635;28;20548;-70
2022/09/28 14:03:36;;;;;;;7.30;6.90;;;;;;;;;;5009744;28;20701;-72
2022/09/28 14:06:23;;;;;;;6.90;6.60;;;;;;;;;;5008702;28;20463;-70
2022/09/28 14:09:08;;;;;;;6.90;6.60;;;;;;;;;;5008413;28;20045;-71
2022/09/28 14:11:34;;;;;;;6.88;6.57;;;;;;;;;;4995085;28;20128;-71
2022/09/28 14:14:06;;;;;;;6.78;6.47;;;;;;;;;;4977933;28;20033;-70
2022/09/28 14:16:36;;;;;;;6.68;6.38;;;;;;;;;;5012078;28;20832;-72
2022/09/28 14:19:22;;;;;;;6.70;6.40;;;;;;;;;;4996025;28;20132;-73
2022/09/28 14:22:16;;;;;;;6.45;6.15;;;;;;;;;;5012641;28;20045;-69
2022/09/28 14:24:43;;;;;;;6.65;6.35;;;;;;;;;;5011592;28;20046;-70
2022/09/28 14:27:34;;;;;;;6.30;6.00;;;;;;;;;;5011340;28;20061;-70
2022/09/28 14:30:12;;;;;;;6.50;6.20;;;;;;;;;;5016994;28;20030;-71
2022/09/28 14:32:53;;;;;;;6.90;6.60;;;;;;;;;;5008295;28;20045;-70
2022/09/28 14:35:32;;;;;;;6.70;6.40;;;;;;;;;;5009564;28;20042;-69
2022/09/28 14:41:16;;;;;;;6.25;5.95;;;;;;;;;;5009862;28;20092;-70
2022/09/28 14:43:44;;;;;;;6.30;6.00;;;;;;;;;;5007150;28;20034;-70
2022/09/28 14:46:10;;;;;;;6.33;6.03;;;;;;;;;;5009818;28;20034;-70
2022/09/28 14:49:01;;;;;;;6.32;6.03;;;;;;;;;;5008412;28;20453;-71
2022/09/28 14:51:28;;;;;;;6.75;6.45;;;;;;;;;;5009556;28;20044;-71
2022/09/28 14:54:13;;;;;;;6.57;6.28;;;;;;;;;;5011240;28;20081;-71
2022/09/28 14:56:44;;;;;;;6.50;6.20;;;;;;;;;;5007882;28;20045;-72
2022/09/28 14:59:16;;;;;;;6.50;6.20;;;;;;;;;;5008050;28;20053;-69
2022/09/28 15:01:46;;;;;;;6.25;5.95;;;;;;;;;;5008767;28;20096;-71
2022/09/28 15:04:13;;;;;;;6.10;5.80;;;;;;;;;;5011290;28;20118;-69
2022/09/28 15:06:46;;;;;;;6.75;6.45;;;;;;;;;;5011169;28;20092;-70
2022/09/28 15:09:32;;;;;;;6.35;6.05;;;;;;;;;;5012453;28;20056;-70
2022/09/28 15:12:03;;;;;;;6.43;6.13;;;;;;;;;;5010089;28;20030;-71
2022/09/28 15:14:32;;;;;;;6.55;6.25;;;;;;;;;;5014040;28;20076;-69
2022/09/28 15:17:02;;;;;;;6.20;5.90;;;;;;;;;;5012698;28;20598;-69
2022/09/28 15:19:52;;;;;;;6.13;5.82;;;;;;;;;;4978528;28;20042;-69
2022/09/28 15:22:19;;;;;;;6.20;5.90;;;;;;;;;;5014091;28;20076;-70
2022/09/28 15:24:54;;;;;;;6.30;6.00;;;;;;;;;;5012111;28;20053;-70
2022/09/28 15:27:22;;;;;;;6.10;5.80;;;;;;;;;;4978310;28;20053;-70
2022/09/28 15:29:59;;;;;;;6.50;6.20;;;;;;;;;;4991547;28;20180;-70
2022/09/28 15:32:27;;;;;;;6.65;6.35;;;;;;;;;;5004798;28;20033;-69
2022/09/28 15:34:55;;;;;;;6.63;6.32;;;;;;;;;;5009706;28;20112;-69
2022/09/28 15:37:28;;;;;;;6.75;6.45;;;;;;;;;;5007721;28;20630;-69
2022/09/28 15:39:56;;;;;;;6.40;6.10;;;;;;;;;;5010816;28;20041;-69
2022/09/28 15:42:22;;;;;;;6.15;5.85;;;;;;;;;;5010056;28;20136;-69
2022/09/28 15:45:06;;;;;;;6.57;6.28;;;;;;;;;;5010406;28;20080;-69
2022/09/28 15:47:34;;;;;;;6.53;6.22;;;;;;;;;;5009286;28;20029;-69
2022/09/28 15:50:04;;;;;;;6.85;6.55;;;;;;;;;;4976535;28;20117;-69
2022/09/28 15:52:42;;;;;;;6.57;6.28;;;;;;;;;;5007936;28;20084;-70
2022/09/28 15:55:24;;;;;;;6.30;6.00;;;;;;;;;;4992037;28;20080;-70
2022/09/28 15:57:50;;;;;;;6.53;6.22;;;;;;;;;;5009310;28;20481;-69